sensor_id;sensor_type;location;lat;lon;timestamp;temperature;humidity
22738;DHT22;11536;50.860;4.286;2023-08-01T00:00:38;18.30;99.90
22738;DHT22;11536;50.860;4.286;2023-08-01T00:03:04;18.30;99.90
22738;DHT22;11536;50.860;4.286;2023-08-01T00:05:29;18.30;99.90
22738;DHT22;11536;50.860;4.286;2023-08-01T00:07:55;18.20;99.90
22738;DHT22;11536;50.860;4.286;2023-08-01T00:10:20;18.20;99.90
22738;DHT22;11536;50.860;4.286;2023-08-01T00:12:46;18.20;99.90
22738;DHT22;11536;50.860;4.286;2023-08-01T00:15:12;18.20;99.90
22738;DHT22;11536;50.860;4.286;2023-08-01T00:17:37;18.20;99.90
22738;DHT22;11536;50.860;4.286;2023-08-01T00:20:03;18.10;99.90
22738;DHT22;11536;50.860;4.286;2023-08-01T00:22:30;18.20;99.90
22738;DHT22;11536;50.860;4.286;2023-08-01T00:24:55;18.10;99.90
22738;DHT22;11536;50.860;4.286;2023-08-01T00:27:21;18.10;99.90
22738;DHT22;11536;50.860;4.286;2023-08-01T00:29:47;18.10;99.90
22738;DHT22;11536;50.860;4.286;2023-08-01T00:32:12;18.10;99.90
22738;DHT22;11536;50.860;4.286;2023-08-01T00:34:38;18.00;99.90
22738;DHT22;11536;50.860;4.286;2023-08-01T00:37:04;18.00;99.90
22738;DHT22;11536;50.860;4.286;2023-08-01T00:39:30;18.00;99.90
22738;DHT22;11536;50.860;4.286;2023-08-01T00:41:56;18.00;99.90
22738;DHT22;11536;50.860;4.286;2023-08-01T00:44:22;17.90;99.90
22738;DHT22;11536;50.860;4.286;2023-08-01T00:46:47;17.90;99.90
22738;DHT22;11536;50.860;4.286;2023-08-01T00:49:14;17.90;99.90
22738;DHT22;11536;50.860;4.286;2023-08-01T00:51:40;17.90;99.90
22738;DHT22;11536;50.860;4.286;2023-08-01T00:54:06;17.90;99.90
22738;DHT22;11536;50.860;4.286;2023-08-01T00:56:32;17.90;99.90
22738;DHT22;11536;50.860;4.286;2023-08-01T00:58:57;17.90;99.90
22738;DHT22;11536;50.860;4.286;2023-08-01T01:01:23;17.90;99.90
22738;DHT22;11536;50.860;4.286;2023-08-01T01:03:49;17.90;99.90
22738;DHT22;11536;50.860;4.286;2023-08-01T01:09:18;17.80;99.90
22738;DHT22;11536;50.860;4.286;2023-08-01T01:11:45;17.80;99.90
22738;DHT22;11536;50.860;4.286;2023-08-01T01:14:11;17.80;99.90
22738;DHT22;11536;50.860;4.286;2023-08-01T01:16:36;17.80;99.90
22738;DHT22;11536;50.860;4.286;2023-08-01T01:19:07;17.80;99.90
22738;DHT22;11536;50.860;4.286;2023-08-01T01:21:38;17.80;99.90
22738;DHT22;11536;50.860;4.286;2023-08-01T01:24:07;17.80;99.90
22738;DHT22;11536;50.860;4.286;2023-08-01T01:26:33;17.80;99.90
22738;DHT22;11536;50.860;4.286;2023-08-01T01:29:00;17.80;99.90
22738;DHT22;11536;50.860;4.286;2023-08-01T01:31:27;17.80;99.90
22738;DHT22;11536;50.860;4.286;2023-08-01T01:33:53;17.80;99.90
22738;DHT22;11536;50.860;4.286;2023-08-01T01:36:19;17.70;99.90
22738;DHT22;11536;50.860;4.286;2023-08-01T01:38:45;17.70;99.90
22738;DHT22;11536;50.860;4.286;2023-08-01T01:41:10;17.70;99.90
22738;DHT22;11536;50.860;4.286;2023-08-01T01:43:37;17.70;99.90
22738;DHT22;11536;50.860;4.286;2023-08-01T01:46:03;17.70;99.90
22738;DHT22;11536;50.860;4.286;2023-08-01T01:48:29;17.60;99.90
22738;DHT22;11536;50.860;4.286;2023-08-01T01:50:54;17.70;99.90
22738;DHT22;11536;50.860;4.286;2023-08-01T01:53:20;17.60;99.90
22738;DHT22;11536;50.860;4.286;2023-08-01T01:55:45;17.60;99.90
22738;DHT22;11536;50.860;4.286;2023-08-01T01:58:11;17.60;99.90
22738;DHT22;11536;50.860;4.286;2023-08-01T02:00:37;17.60;99.90
22738;DHT22;11536;50.860;4.286;2023-08-01T02:03:02;17.50;99.90
22738;DHT22;11536;50.860;4.286;2023-08-01T02:05:29;17.50;99.90
22738;DHT22;11536;50.860;4.286;2023-08-01T02:07:55;17.50;99.90
22738;DHT22;11536;50.860;4.286;2023-08-01T02:10:20;17.50;99.90
22738;DHT22;11536;50.860;4.286;2023-08-01T02:12:46;17.50;99.90
22738;DHT22;11536;50.860;4.286;2023-08-01T02:15:11;17.50;99.90
22738;DHT22;11536;50.860;4.286;2023-08-01T02:17:37;17.50;99.90
22738;DHT22;11536;50.860;4.286;2023-08-01T02:20:03;17.50;99.90
22738;DHT22;11536;50.860;4.286;2023-08-01T02:22:28;17.50;99.90
22738;DHT22;11536;50.860;4.286;2023-08-01T02:24:54;17.50;99.90
22738;DHT22;11536;50.860;4.286;2023-08-01T02:27:20;17.50;99.90
22738;DHT22;11536;50.860;4.286;2023-08-01T02:29:45;17.50;99.90
22738;DHT22;11536;50.860;4.286;2023-08-01T02:32:11;17.40;99.90
22738;DHT22;11536;50.860;4.286;2023-08-01T02:34:36;17.40;99.90
22738;DHT22;11536;50.860;4.286;2023-08-01T02:37:02;17.40;99.90
22738;DHT22;11536;50.860;4.286;2023-08-01T02:39:28;17.40;99.90
22738;DHT22;11536;50.860;4.286;2023-08-01T02:41:53;17.40;99.90
22738;DHT22;11536;50.860;4.286;2023-08-01T02:44:19;17.40;99.90
22738;DHT22;11536;50.860;4.286;2023-08-01T02:46:47;17.40;99.90
22738;DHT22;11536;50.860;4.286;2023-08-01T02:49:13;17.40;99.90
22738;DHT22;11536;50.860;4.286;2023-08-01T02:51:38;17.40;99.90
22738;DHT22;11536;50.860;4.286;2023-08-01T02:54:04;17.40;99.90
22738;DHT22;11536;50.860;4.286;2023-08-01T02:56:30;17.40;99.90
22738;DHT22;11536;50.860;4.286;2023-08-01T02:58:55;17.30;99.90
22738;DHT22;11536;50.860;4.286;2023-08-01T03:01:21;17.30;99.90
22738;DHT22;11536;50.860;4.286;2023-08-01T03:03:46;17.30;99.90
22738;DHT22;11536;50.860;4.286;2023-08-01T03:06:12;17.40;99.90
22738;DHT22;11536;50.860;4.286;2023-08-01T03:08:38;17.30;99.90
22738;DHT22;11536;50.860;4.286;2023-08-01T03:11:04;17.30;99.90
22738;DHT22;11536;50.860;4.286;2023-08-01T03:13:30;17.30;99.90
22738;DHT22;11536;50.860;4.286;2023-08-01T03:15:55;17.30;99.90
22738;DHT22;11536;50.860;4.286;2023-08-01T03:18:21;17.30;99.90
22738;DHT22;11536;50.860;4.286;2023-08-01T03:20:47;17.30;99.90
22738;DHT22;11536;50.860;4.286;2023-08-01T03:23:12;17.30;99.90
22738;DHT22;11536;50.860;4.286;2023-08-01T03:25:38;17.40;99.90
22738;DHT22;11536;50.860;4.286;2023-08-01T03:28:04;17.30;99.90
22738;DHT22;11536;50.860;4.286;2023-08-01T03:30:32;17.30;99.90
22738;DHT22;11536;50.860;4.286;2023-08-01T03:32:57;17.30;99.90
22738;DHT22;11536;50.860;4.286;2023-08-01T03:35:23;17.30;99.90
22738;DHT22;11536;50.860;4.286;2023-08-01T03:37:49;17.30;99.90
22738;DHT22;11536;50.860;4.286;2023-08-01T03:40:15;17.30;99.90
22738;DHT22;11536;50.860;4.286;2023-08-01T03:42:40;17.30;99.90
22738;DHT22;11536;50.860;4.286;2023-08-01T03:45:07;17.30;99.90
22738;DHT22;11536;50.860;4.286;2023-08-01T03:47:33;17.30;99.90
22738;DHT22;11536;50.860;4.286;2023-08-01T03:49:58;17.30;99.90
22738;DHT22;11536;50.860;4.286;2023-08-01T03:52:24;17.30;99.90
22738;DHT22;11536;50.860;4.286;2023-08-01T03:54:53;17.30;99.90
22738;DHT22;11536;50.860;4.286;2023-08-01T03:57:19;17.30;99.90
22738;DHT22;11536;50.860;4.286;2023-08-01T03:59:46;17.30;99.90
22738;DHT22;11536;50.860;4.286;2023-08-01T04:02:11;17.30;99.90
22738;DHT22;11536;50.860;4.286;2023-08-01T04:04:37;17.30;99.90
22738;DHT22;11536;50.860;4.286;2023-08-01T04:07:03;17.30;99.90
22738;DHT22;11536;50.860;4.286;2023-08-01T04:09:29;17.30;99.90
22738;DHT22;11536;50.860;4.286;2023-08-01T04:11:54;17.30;99.90
22738;DHT22;11536;50.860;4.286;2023-08-01T04:14:20;17.30;99.90
22738;DHT22;11536;50.860;4.286;2023-08-01T04:16:45;17.30;99.90
22738;DHT22;11536;50.860;4.286;2023-08-01T04:19:11;17.30;99.90
22738;DHT22;11536;50.860;4.286;2023-08-01T04:21:36;17.20;99.90
22738;DHT22;11536;50.860;4.286;2023-08-01T04:24:02;17.20;99.90
22738;DHT22;11536;50.860;4.286;2023-08-01T04:26:28;17.20;99.90
22738;DHT22;11536;50.860;4.286;2023-08-01T04:28:53;17.20;99.90
22738;DHT22;11536;50.860;4.286;2023-08-01T04:31:19;17.20;99.90
22738;DHT22;11536;50.860;4.286;2023-08-01T04:33:44;17.20;99.90
22738;DHT22;11536;50.860;4.286;2023-08-01T04:36:10;17.20;99.90
22738;DHT22;11536;50.860;4.286;2023-08-01T04:38:36;17.20;99.90
22738;DHT22;11536;50.860;4.286;2023-08-01T04:41:01;17.20;99.90
22738;DHT22;11536;50.860;4.286;2023-08-01T04:43:28;17.10;99.90
22738;DHT22;11536;50.860;4.286;2023-08-01T04:45:54;17.10;99.90
22738;DHT22;11536;50.860;4.286;2023-08-01T04:48:19;17.10;99.90
22738;DHT22;11536;50.860;4.286;2023-08-01T04:50:45;17.10;99.90
22738;DHT22;11536;50.860;4.286;2023-08-01T04:53:10;17.10;99.90
22738;DHT22;11536;50.860;4.286;2023-08-01T04:55:36;17.10;99.90
22738;DHT22;11536;50.860;4.286;2023-08-01T04:58:02;17.10;99.90
22738;DHT22;11536;50.860;4.286;2023-08-01T05:00:28;17.10;99.90
22738;DHT22;11536;50.860;4.286;2023-08-01T05:02:53;17.10;99.90
22738;DHT22;11536;50.860;4.286;2023-08-01T05:05:19;17.10;99.90
22738;DHT22;11536;50.860;4.286;2023-08-01T05:07:44;17.10;99.90
22738;DHT22;11536;50.860;4.286;2023-08-01T05:10:10;17.10;99.90
22738;DHT22;11536;50.860;4.286;2023-08-01T05:12:35;17.10;99.90
22738;DHT22;11536;50.860;4.286;2023-08-01T05:15:01;17.10;99.90
22738;DHT22;11536;50.860;4.286;2023-08-01T05:17:27;17.20;99.90
22738;DHT22;11536;50.860;4.286;2023-08-01T05:19:52;17.10;99.90
22738;DHT22;11536;50.860;4.286;2023-08-01T05:22:18;17.10;99.90
22738;DHT22;11536;50.860;4.286;2023-08-01T05:24:43;17.20;99.90
22738;DHT22;11536;50.860;4.286;2023-08-01T05:27:09;17.20;99.90
22738;DHT22;11536;50.860;4.286;2023-08-01T05:29:35;17.20;99.90
22738;DHT22;11536;50.860;4.286;2023-08-01T05:32:02;17.20;99.90
22738;DHT22;11536;50.860;4.286;2023-08-01T05:34:27;17.20;99.90
22738;DHT22;11536;50.860;4.286;2023-08-01T05:36:53;17.20;99.90
22738;DHT22;11536;50.860;4.286;2023-08-01T05:39:18;17.20;99.90
22738;DHT22;11536;50.860;4.286;2023-08-01T05:41:44;17.20;99.90
22738;DHT22;11536;50.860;4.286;2023-08-01T05:44:09;17.20;99.90
22738;DHT22;11536;50.860;4.286;2023-08-01T05:46:35;17.20;99.90
22738;DHT22;11536;50.860;4.286;2023-08-01T05:49:01;17.20;99.90
22738;DHT22;11536;50.860;4.286;2023-08-01T05:51:26;17.20;99.90
22738;DHT22;11536;50.860;4.286;2023-08-01T05:53:59;17.30;99.90
22738;DHT22;11536;50.860;4.286;2023-08-01T05:56:31;17.30;99.90
22738;DHT22;11536;50.860;4.286;2023-08-01T05:58:56;17.30;99.90
22738;DHT22;11536;50.860;4.286;2023-08-01T06:01:22;17.30;99.90
22738;DHT22;11536;50.860;4.286;2023-08-01T06:03:48;17.30;99.90
22738;DHT22;11536;50.860;4.286;2023-08-01T06:06:13;17.30;99.90
22738;DHT22;11536;50.860;4.286;2023-08-01T06:08:39;17.30;99.90
22738;DHT22;11536;50.860;4.286;2023-08-01T06:11:04;17.30;99.90
22738;DHT22;11536;50.860;4.286;2023-08-01T06:13:30;17.40;99.90
22738;DHT22;11536;50.860;4.286;2023-08-01T06:15:55;17.40;99.90
22738;DHT22;11536;50.860;4.286;2023-08-01T06:18:21;17.40;99.90
22738;DHT22;11536;50.860;4.286;2023-08-01T06:20:47;17.40;99.90
22738;DHT22;11536;50.860;4.286;2023-08-01T06:23:13;17.40;99.90
22738;DHT22;11536;50.860;4.286;2023-08-01T06:25:38;17.40;99.90
22738;DHT22;11536;50.860;4.286;2023-08-01T06:28:04;17.40;99.90
22738;DHT22;11536;50.860;4.286;2023-08-01T06:30:30;17.50;99.90
22738;DHT22;11536;50.860;4.286;2023-08-01T06:32:56;17.40;99.90
22738;DHT22;11536;50.860;4.286;2023-08-01T06:35:22;17.50;99.90
22738;DHT22;11536;50.860;4.286;2023-08-01T06:37:47;17.50;99.90
22738;DHT22;11536;50.860;4.286;2023-08-01T06:40:13;17.50;99.90
22738;DHT22;11536;50.860;4.286;2023-08-01T06:42:38;17.50;99.90
22738;DHT22;11536;50.860;4.286;2023-08-01T06:45:05;17.50;99.90
22738;DHT22;11536;50.860;4.286;2023-08-01T06:47:31;17.40;99.90
22738;DHT22;11536;50.860;4.286;2023-08-01T06:49:56;17.50;99.90
22738;DHT22;11536;50.860;4.286;2023-08-01T06:52:22;17.50;99.90
22738;DHT22;11536;50.860;4.286;2023-08-01T06:54:47;17.50;99.90
22738;DHT22;11536;50.860;4.286;2023-08-01T06:57:13;17.60;99.90
22738;DHT22;11536;50.860;4.286;2023-08-01T06:59:39;17.50;99.90
22738;DHT22;11536;50.860;4.286;2023-08-01T07:02:05;17.60;99.90
22738;DHT22;11536;50.860;4.286;2023-08-01T07:04:31;17.60;99.90
22738;DHT22;11536;50.860;4.286;2023-08-01T07:06:56;17.60;99.90
22738;DHT22;11536;50.860;4.286;2023-08-01T07:09:22;17.60;99.90
22738;DHT22;11536;50.860;4.286;2023-08-01T07:11:47;17.70;99.90
22738;DHT22;11536;50.860;4.286;2023-08-01T07:14:13;17.70;99.90
22738;DHT22;11536;50.860;4.286;2023-08-01T07:16:39;17.70;99.90
22738;DHT22;11536;50.860;4.286;2023-08-01T07:19:04;17.70;99.90
22738;DHT22;11536;50.860;4.286;2023-08-01T07:21:30;17.80;99.90
22738;DHT22;11536;50.860;4.286;2023-08-01T07:23:56;17.80;99.90
22738;DHT22;11536;50.860;4.286;2023-08-01T07:26:23;17.80;99.90
22738;DHT22;11536;50.860;4.286;2023-08-01T07:28:48;17.80;99.90
22738;DHT22;11536;50.860;4.286;2023-08-01T07:31:14;17.80;99.90
22738;DHT22;11536;50.860;4.286;2023-08-01T07:33:40;17.80;99.90
22738;DHT22;11536;50.860;4.286;2023-08-01T07:36:05;17.80;99.90
22738;DHT22;11536;50.860;4.286;2023-08-01T07:38:31;17.90;99.90
22738;DHT22;11536;50.860;4.286;2023-08-01T07:41:03;17.90;99.90
22738;DHT22;11536;50.860;4.286;2023-08-01T07:43:29;17.90;99.90
22738;DHT22;11536;50.860;4.286;2023-08-01T07:45:56;17.90;99.90
22738;DHT22;11536;50.860;4.286;2023-08-01T07:48:22;17.90;99.90
22738;DHT22;11536;50.860;4.286;2023-08-01T07:50:47;17.90;99.90
22738;DHT22;11536;50.860;4.286;2023-08-01T07:53:13;17.90;99.90
22738;DHT22;11536;50.860;4.286;2023-08-01T07:55:38;17.90;99.90
22738;DHT22;11536;50.860;4.286;2023-08-01T07:58:04;17.90;99.90
22738;DHT22;11536;50.860;4.286;2023-08-01T08:00:30;18.00;99.90
22738;DHT22;11536;50.860;4.286;2023-08-01T08:02:55;18.00;99.90
22738;DHT22;11536;50.860;4.286;2023-08-01T08:05:21;18.00;99.90
22738;DHT22;11536;50.860;4.286;2023-08-01T08:07:46;18.00;99.90
22738;DHT22;11536;50.860;4.286;2023-08-01T08:10:12;18.10;99.90
22738;DHT22;11536;50.860;4.286;2023-08-01T08:12:37;18.10;99.90
22738;DHT22;11536;50.860;4.286;2023-08-01T08:15:03;18.20;99.90
22738;DHT22;11536;50.860;4.286;2023-08-01T08:17:29;18.20;99.90
22738;DHT22;11536;50.860;4.286;2023-08-01T08:19:55;18.20;99.90
22738;DHT22;11536;50.860;4.286;2023-08-01T08:22:20;18.20;99.90
22738;DHT22;11536;50.860;4.286;2023-08-01T08:24:46;18.30;99.90
22738;DHT22;11536;50.860;4.286;2023-08-01T08:27:11;18.30;99.90
22738;DHT22;11536;50.860;4.286;2023-08-01T08:29:38;18.30;99.90
22738;DHT22;11536;50.860;4.286;2023-08-01T08:32:04;18.30;99.90
22738;DHT22;11536;50.860;4.286;2023-08-01T08:34:29;18.40;99.90
22738;DHT22;11536;50.860;4.286;2023-08-01T08:36:55;18.40;99.90
22738;DHT22;11536;50.860;4.286;2023-08-01T08:39:20;18.50;99.90
22738;DHT22;11536;50.860;4.286;2023-08-01T08:41:48;18.60;99.90
22738;DHT22;11536;50.860;4.286;2023-08-01T08:44:18;18.60;99.90
22738;DHT22;11536;50.860;4.286;2023-08-01T08:46:51;18.70;99.90
22738;DHT22;11536;50.860;4.286;2023-08-01T08:49:18;18.80;99.90
22738;DHT22;11536;50.860;4.286;2023-08-01T08:51:45;18.70;99.90
22738;DHT22;11536;50.860;4.286;2023-08-01T08:54:13;18.80;99.90
22738;DHT22;11536;50.860;4.286;2023-08-01T08:56:40;18.80;99.90
22738;DHT22;11536;50.860;4.286;2023-08-01T08:59:09;18.80;99.90
22738;DHT22;11536;50.860;4.286;2023-08-01T09:01:38;18.90;99.90
22738;DHT22;11536;50.860;4.286;2023-08-01T09:04:05;18.90;99.90
22738;DHT22;11536;50.860;4.286;2023-08-01T09:06:34;18.90;99.90
22738;DHT22;11536;50.860;4.286;2023-08-01T09:09:18;18.90;99.90
22738;DHT22;11536;50.860;4.286;2023-08-01T09:11:46;18.90;99.90
22738;DHT22;11536;50.860;4.286;2023-08-01T09:14:12;18.90;99.90
22738;DHT22;11536;50.860;4.286;2023-08-01T09:16:39;18.90;99.90
22738;DHT22;11536;50.860;4.286;2023-08-01T09:19:06;19.00;99.90
22738;DHT22;11536;50.860;4.286;2023-08-01T09:21:35;19.00;99.90
22738;DHT22;11536;50.860;4.286;2023-08-01T09:26:39;19.10;99.90
22738;DHT22;11536;50.860;4.286;2023-08-01T09:29:05;19.10;99.90
22738;DHT22;11536;50.860;4.286;2023-08-01T09:31:36;19.10;99.90
22738;DHT22;11536;50.860;4.286;2023-08-01T09:34:03;19.10;99.90
22738;DHT22;11536;50.860;4.286;2023-08-01T09:36:31;19.10;99.90
22738;DHT22;11536;50.860;4.286;2023-08-01T09:39:01;19.10;99.90
22738;DHT22;11536;50.860;4.286;2023-08-01T09:41:28;19.10;99.90
22738;DHT22;11536;50.860;4.286;2023-08-01T09:43:55;19.10;99.90
22738;DHT22;11536;50.860;4.286;2023-08-01T09:46:20;19.20;99.90
22738;DHT22;11536;50.860;4.286;2023-08-01T09:48:46;19.20;99.90
22738;DHT22;11536;50.860;4.286;2023-08-01T09:51:14;19.20;99.90
22738;DHT22;11536;50.860;4.286;2023-08-01T09:53:56;19.20;99.90
22738;DHT22;11536;50.860;4.286;2023-08-01T09:56:28;19.20;99.90
22738;DHT22;11536;50.860;4.286;2023-08-01T09:58:55;19.20;99.90
22738;DHT22;11536;50.860;4.286;2023-08-01T10:01:24;19.20;99.90
22738;DHT22;11536;50.860;4.286;2023-08-01T10:03:52;19.30;99.90
22738;DHT22;11536;50.860;4.286;2023-08-01T10:06:22;19.40;99.90
22738;DHT22;11536;50.860;4.286;2023-08-01T10:08:50;19.40;99.90
22738;DHT22;11536;50.860;4.286;2023-08-01T10:11:21;19.50;99.90
22738;DHT22;11536;50.860;4.286;2023-08-01T10:13:47;19.40;99.90
22738;DHT22;11536;50.860;4.286;2023-08-01T10:16:14;19.50;99.90
22738;DHT22;11536;50.860;4.286;2023-08-01T10:18:41;19.50;99.90
22738;DHT22;11536;50.860;4.286;2023-08-01T10:21:09;19.50;99.90
22738;DHT22;11536;50.860;4.286;2023-08-01T10:23:37;19.60;99.90
22738;DHT22;11536;50.860;4.286;2023-08-01T10:26:04;19.70;99.90
22738;DHT22;11536;50.860;4.286;2023-08-01T10:28:34;19.70;99.90
22738;DHT22;11536;50.860;4.286;2023-08-01T10:31:13;19.80;99.90
22738;DHT22;11536;50.860;4.286;2023-08-01T10:33:41;19.80;99.90
22738;DHT22;11536;50.860;4.286;2023-08-01T10:36:17;19.90;99.90
22738;DHT22;11536;50.860;4.286;2023-08-01T10:41:25;19.90;99.90
22738;DHT22;11536;50.860;4.286;2023-08-01T10:43:50;20.00;99.90
22738;DHT22;11536;50.860;4.286;2023-08-01T10:46:16;20.00;99.90
22738;DHT22;11536;50.860;4.286;2023-08-01T10:48:52;20.10;99.90
22738;DHT22;11536;50.860;4.286;2023-08-01T10:51:18;20.10;99.90
22738;DHT22;11536;50.860;4.286;2023-08-01T10:53:44;20.10;99.90
22738;DHT22;11536;50.860;4.286;2023-08-01T10:56:17;20.00;99.90
22738;DHT22;11536;50.860;4.286;2023-08-01T10:58:43;20.00;99.90
22738;DHT22;11536;50.860;4.286;2023-08-01T11:01:08;20.00;99.90
22738;DHT22;11536;50.860;4.286;2023-08-01T11:03:38;20.10;99.90
22738;DHT22;11536;50.860;4.286;2023-08-01T11:06:04;20.10;99.90
22738;DHT22;11536;50.860;4.286;2023-08-01T11:08:40;20.10;99.90
22738;DHT22;11536;50.860;4.286;2023-08-01T11:11:08;20.20;99.90
22738;DHT22;11536;50.860;4.286;2023-08-01T11:13:36;20.30;99.90
22738;DHT22;11536;50.860;4.286;2023-08-01T11:16:05;20.40;99.90
22738;DHT22;11536;50.860;4.286;2023-08-01T11:18:44;20.40;99.90
22738;DHT22;11536;50.860;4.286;2023-08-01T11:21:09;20.40;99.90
22738;DHT22;11536;50.860;4.286;2023-08-01T11:23:35;20.40;99.90
22738;DHT22;11536;50.860;4.286;2023-08-01T11:26:09;20.50;99.90
22738;DHT22;11536;50.860;4.286;2023-08-01T11:28:35;20.50;99.90
22738;DHT22;11536;50.860;4.286;2023-08-01T11:31:00;20.50;99.90
22738;DHT22;11536;50.860;4.286;2023-08-01T11:33:26;20.60;99.90
22738;DHT22;11536;50.860;4.286;2023-08-01T11:35:56;20.70;99.90
22738;DHT22;11536;50.860;4.286;2023-08-01T11:38:29;20.70;99.90
22738;DHT22;11536;50.860;4.286;2023-08-01T11:40:57;20.90;99.90
22738;DHT22;11536;50.860;4.286;2023-08-01T11:43:23;21.00;99.90
22738;DHT22;11536;50.860;4.286;2023-08-01T11:45:53;21.10;99.90
22738;DHT22;11536;50.860;4.286;2023-08-01T11:48:24;21.20;99.90
22738;DHT22;11536;50.860;4.286;2023-08-01T11:50:59;21.30;99.90
22738;DHT22;11536;50.860;4.286;2023-08-01T11:53:25;21.30;99.90
22738;DHT22;11536;50.860;4.286;2023-08-01T11:55:51;21.20;99.90
22738;DHT22;11536;50.860;4.286;2023-08-01T11:58:32;21.20;99.90
22738;DHT22;11536;50.860;4.286;2023-08-01T12:01:05;21.10;99.90
22738;DHT22;11536;50.860;4.286;2023-08-01T12:03:31;21.00;99.90
22738;DHT22;11536;50.860;4.286;2023-08-01T12:06:08;21.00;99.90
22738;DHT22;11536;50.860;4.286;2023-08-01T12:08:34;21.00;99.90
22738;DHT22;11536;50.860;4.286;2023-08-01T12:11:00;21.00;99.90
22738;DHT22;11536;50.860;4.286;2023-08-01T12:13:26;21.00;99.90
22738;DHT22;11536;50.860;4.286;2023-08-01T12:15:54;21.00;99.90
22738;DHT22;11536;50.860;4.286;2023-08-01T12:18:28;21.00;99.90
22738;DHT22;11536;50.860;4.286;2023-08-01T12:20:54;21.00;99.90
22738;DHT22;11536;50.860;4.286;2023-08-01T12:23:20;21.00;99.90
22738;DHT22;11536;50.860;4.286;2023-08-01T12:25:47;21.00;99.90
22738;DHT22;11536;50.860;4.286;2023-08-01T12:28:15;21.00;99.90
22738;DHT22;11536;50.860;4.286;2023-08-01T12:30:42;20.90;99.90
22738;DHT22;11536;50.860;4.286;2023-08-01T12:33:10;20.90;99.90
22738;DHT22;11536;50.860;4.286;2023-08-01T12:35:41;20.80;99.90
22738;DHT22;11536;50.860;4.286;2023-08-01T12:38:07;20.70;99.90
22738;DHT22;11536;50.860;4.286;2023-08-01T12:40:33;20.70;99.90
22738;DHT22;11536;50.860;4.286;2023-08-01T12:42:58;20.60;99.90
22738;DHT22;11536;50.860;4.286;2023-08-01T12:45:24;20.60;99.90
22738;DHT22;11536;50.860;4.286;2023-08-01T12:47:50;20.60;99.90
22738;DHT22;11536;50.860;4.286;2023-08-01T12:50:16;20.50;99.90
22738;DHT22;11536;50.860;4.286;2023-08-01T12:52:42;20.50;99.90
22738;DHT22;11536;50.860;4.286;2023-08-01T12:55:07;20.40;99.90
22738;DHT22;11536;50.860;4.286;2023-08-01T12:57:33;20.40;99.90
22738;DHT22;11536;50.860;4.286;2023-08-01T12:59:59;20.40;99.90
22738;DHT22;11536;50.860;4.286;2023-08-01T13:02:26;20.40;99.90
22738;DHT22;11536;50.860;4.286;2023-08-01T13:04:52;20.40;99.90
22738;DHT22;11536;50.860;4.286;2023-08-01T13:07:17;20.40;99.90
22738;DHT22;11536;50.860;4.286;2023-08-01T13:09:43;20.40;99.90
22738;DHT22;11536;50.860;4.286;2023-08-01T13:12:08;20.50;99.90
22738;DHT22;11536;50.860;4.286;2023-08-01T13:14:34;20.60;99.90
22738;DHT22;11536;50.860;4.286;2023-08-01T13:17:00;20.80;99.90
22738;DHT22;11536;50.860;4.286;2023-08-01T13:19:26;21.00;99.90
22738;DHT22;11536;50.860;4.286;2023-08-01T13:21:51;21.10;99.90
22738;DHT22;11536;50.860;4.286;2023-08-01T13:24:17;21.20;99.90
22738;DHT22;11536;50.860;4.286;2023-08-01T13:26:42;21.30;99.90
22738;DHT22;11536;50.860;4.286;2023-08-01T13:29:08;21.40;99.90
22738;DHT22;11536;50.860;4.286;2023-08-01T13:31:34;21.60;99.90
22738;DHT22;11536;50.860;4.286;2023-08-01T13:33:59;21.70;99.90
22738;DHT22;11536;50.860;4.286;2023-08-01T13:36:25;21.90;99.90
22738;DHT22;11536;50.860;4.286;2023-08-01T13:38:51;22.00;99.90
22738;DHT22;11536;50.860;4.286;2023-08-01T13:41:17;22.00;99.90
22738;DHT22;11536;50.860;4.286;2023-08-01T13:43:45;21.90;99.90
22738;DHT22;11536;50.860;4.286;2023-08-01T13:46:16;21.90;99.90
22738;DHT22;11536;50.860;4.286;2023-08-01T13:48:44;21.90;99.90
22738;DHT22;11536;50.860;4.286;2023-08-01T13:51:09;22.00;99.90
22738;DHT22;11536;50.860;4.286;2023-08-01T13:53:35;22.00;99.90
22738;DHT22;11536;50.860;4.286;2023-08-01T13:56:12;22.00;99.90
22738;DHT22;11536;50.860;4.286;2023-08-01T13:58:39;21.90;99.90
22738;DHT22;11536;50.860;4.286;2023-08-01T14:01:08;21.80;99.90
22738;DHT22;11536;50.860;4.286;2023-08-01T14:03:35;21.70;99.90
22738;DHT22;11536;50.860;4.286;2023-08-01T14:06:18;21.60;99.90
22738;DHT22;11536;50.860;4.286;2023-08-01T14:08:44;21.50;99.90
22738;DHT22;11536;50.860;4.286;2023-08-01T14:11:10;21.40;99.90
22738;DHT22;11536;50.860;4.286;2023-08-01T14:13:36;21.20;99.90
22738;DHT22;11536;50.860;4.286;2023-08-01T14:16:02;21.20;99.90
22738;DHT22;11536;50.860;4.286;2023-08-01T14:18:28;21.10;99.90
22738;DHT22;11536;50.860;4.286;2023-08-01T14:20:54;21.00;99.90
22738;DHT22;11536;50.860;4.286;2023-08-01T14:23:20;21.00;99.90
22738;DHT22;11536;50.860;4.286;2023-08-01T14:25:46;20.90;99.90
22738;DHT22;11536;50.860;4.286;2023-08-01T14:28:12;20.80;99.90
22738;DHT22;11536;50.860;4.286;2023-08-01T14:30:38;20.70;99.90
22738;DHT22;11536;50.860;4.286;2023-08-01T14:33:07;20.70;99.90
22738;DHT22;11536;50.860;4.286;2023-08-01T14:35:34;20.70;99.90
22738;DHT22;11536;50.860;4.286;2023-08-01T14:38:00;20.60;99.90
22738;DHT22;11536;50.860;4.286;2023-08-01T14:40:26;20.60;99.90
22738;DHT22;11536;50.860;4.286;2023-08-01T14:42:52;20.60;99.90
22738;DHT22;11536;50.860;4.286;2023-08-01T14:45:18;20.50;99.90
22738;DHT22;11536;50.860;4.286;2023-08-01T14:47:44;20.50;99.90
22738;DHT22;11536;50.860;4.286;2023-08-01T14:50:14;20.50;99.90
22738;DHT22;11536;50.860;4.286;2023-08-01T14:52:40;20.50;99.90
22738;DHT22;11536;50.860;4.286;2023-08-01T14:55:06;20.50;99.90
22738;DHT22;11536;50.860;4.286;2023-08-01T14:57:32;20.50;99.90
22738;DHT22;11536;50.860;4.286;2023-08-01T14:59:58;20.50;99.90
22738;DHT22;11536;50.860;4.286;2023-08-01T15:02:24;20.50;99.90
22738;DHT22;11536;50.860;4.286;2023-08-01T15:04:54;20.40;99.90
22738;DHT22;11536;50.860;4.286;2023-08-01T15:07:24;20.40;99.90
22738;DHT22;11536;50.860;4.286;2023-08-01T15:09:51;20.40;99.90
22738;DHT22;11536;50.860;4.286;2023-08-01T15:12:18;20.40;99.90
22738;DHT22;11536;50.860;4.286;2023-08-01T15:14:49;20.40;99.90
22738;DHT22;11536;50.860;4.286;2023-08-01T15:17:15;20.30;99.90
22738;DHT22;11536;50.860;4.286;2023-08-01T15:19:41;20.30;99.90
22738;DHT22;11536;50.860;4.286;2023-08-01T15:22:07;20.30;99.90
22738;DHT22;11536;50.860;4.286;2023-08-01T15:24:32;20.30;99.90
22738;DHT22;11536;50.860;4.286;2023-08-01T15:26:58;20.20;99.90
22738;DHT22;11536;50.860;4.286;2023-08-01T15:29:23;20.20;99.90
22738;DHT22;11536;50.860;4.286;2023-08-01T15:31:49;20.20;99.90
22738;DHT22;11536;50.860;4.286;2023-08-01T15:34:14;20.20;99.90